Time;durP1;ratioP1;P1;durP2;ratioP2;P2;SDS_P1;SDS_P2;PMS_P1;PMS_P2;Temp;Humidity;BMP_temperature;BMP_pressure;BME280_temperature;BME280_humidity;BME280_pressure;Samples;Min_cycle;Max_cycle;Signal;HPM_P1;HPM_P2
2023/03/31 00:00:52;;;;;;;1893.57;808.00;;;12.70;1.00;;;;;;4934933;29;20078;-84
2023/03/31 00:03:20;;;;;;;1999.90;999.90;;;12.70;1.00;;;;;;4923383;29;20477;-81
2023/03/31 00:05:47;;;;;;;1999.90;263.88;;;12.70;1.00;;;;;;4932209;29;20527;-81
2023/03/31 00:08:13;;;;;;;1999.90;999.90;;;12.80;1.00;;;;;;4927446;29;20048;-81
2023/03/31 00:10:44;;;;;;;1999.90;999.90;;;12.80;1.00;;;;;;4932934;29;20130;-81
2023/03/31 00:13:11;;;;;;;1999.90;776.42;;;12.80;1.00;;;;;;4940100;29;20036;-84
2023/03/31 00:15:36;;;;;;;1999.90;300.45;;;12.70;1.00;;;;;;4934163;29;20095;-81
2023/03/31 00:18:02;;;;;;;612.58;43.00;;;12.70;1.00;;;;;;4935084;29;20048;-81
2023/03/31 00:20:28;;;;;;;1866.88;788.60;;;12.70;1.00;;;;;;4935762;29;20081;-81
2023/03/31 00:22:56;;;;;;;1999.90;999.90;;;12.60;1.00;;;;;;4954107;29;20378;-81
2023/03/31 00:25:22;;;;;;;1999.90;999.90;;;12.60;1.00;;;;;;4949768;28;20051;-81
2023/03/31 00:27:51;;;;;;;1999.90;999.90;;;12.60;1.00;;;;;;4941385;29;20058;-81
2023/03/31 00:30:17;;;;;;;1999.90;475.73;;;12.60;1.00;;;;;;4924207;29;20055;-83
2023/03/31 00:32:43;;;;;;;1999.90;999.90;;;12.50;1.00;;;;;;4935897;29;20159;-81
2023/03/31 00:35:09;;;;;;;1951.13;796.90;;;12.50;1.00;;;;;;4942230;29;20056;-81
2023/03/31 00:37:35;;;;;;;1961.55;561.60;;;12.50;1.00;;;;;;4953867;28;20040;-82
2023/03/31 00:40:00;;;;;;;1999.90;999.90;;;12.50;1.00;;;;;;4944359;29;20129;-85
2023/03/31 00:42:26;;;;;;;1848.20;785.53;;;12.40;1.00;;;;;;4932226;29;20047;-80
2023/03/31 00:45:14;;;;;;;1999.90;999.90;;;12.30;1.00;;;;;;4927886;29;20035;-81
2023/03/31 00:47:42;;;;;;;1999.90;999.90;;;12.30;1.00;;;;;;4928346;29;20102;-82
2023/03/31 00:50:17;;;;;;;1705.75;523.97;;;12.10;15.70;;;;;;4939815;29;20062;-81
2023/03/31 00:52:45;;;;;;;1999.90;782.92;;;12.10;67.80;;;;;;4938762;29;20128;-81
2023/03/31 00:55:19;;;;;;;1999.90;999.90;;;12.00;54.80;;;;;;4938209;29;20594;-82
2023/03/31 00:57:46;;;;;;;1999.90;999.90;;;11.90;78.40;;;;;;4942028;28;20114;-83
2023/03/31 01:00:14;;;;;;;1999.90;999.90;;;11.90;93.90;;;;;;4938519;29;20086;-82
2023/03/31 01:02:54;;;;;;;1999.90;630.03;;;11.80;99.90;;;;;;4938435;29;20066;-82
2023/03/31 01:05:27;;;;;;;1999.90;999.90;;;11.90;99.90;;;;;;4933411;29;20509;-82
2023/03/31 01:07:54;;;;;;;1999.90;584.78;;;11.80;99.90;;;;;;4940194;29;20098;-81
2023/03/31 01:10:21;;;;;;;1999.90;999.90;;;11.80;99.90;;;;;;4940751;28;20068;-81
2023/03/31 01:12:51;;;;;;;1831.78;573.65;;;11.90;99.90;;;;;;4938758;29;20051;-82
2023/03/31 01:15:17;;;;;;;1999.90;367.58;;;11.80;99.90;;;;;;4942273;28;20056;-83
2023/03/31 01:17:46;;;;;;;1999.90;999.90;;;11.70;99.90;;;;;;4954213;28;20511;-82
2023/03/31 01:20:39;;;;;;;1995.15;793.22;;;11.70;99.90;;;;;;4937110;29;20134;-81
2023/03/31 01:23:31;;;;;;;1868.18;373.92;;;11.70;99.90;;;;;;4938164;29;20067;-81
2023/03/31 01:26:22;;;;;;;1620.43;564.00;;;11.60;99.90;;;;;;4941109;29;20047;-82
2023/03/31 01:28:53;;;;;;;1705.80;584.83;;;12.00;99.90;;;;;;4957085;29;20381;-82
2023/03/31 01:31:37;;;;;;;1999.90;999.90;;;11.50;99.90;;;;;;4957092;29;20471;-82
2023/03/31 01:34:09;;;;;;;1999.90;852.33;;;11.40;99.90;;;;;;4955544;29;20043;-83
2023/03/31 01:36:35;;;;;;;1801.57;583.35;;;11.50;99.90;;;;;;4945089;28;20459;-81
2023/03/31 01:39:37;;;;;;;1999.90;999.90;;;11.50;99.90;;;;;;4937760;29;20119;-82
2023/03/31 01:42:22;;;;;;;1669.63;573.17;;;11.40;99.90;;;;;;4935748;29;20519;-81
2023/03/31 01:45:08;;;;;;;1322.20;153.25;;;11.40;99.90;;;;;;4918488;29;20087;-81
2023/03/31 01:47:41;;;;;;;1770.32;573.50;;;11.40;99.90;;;;;;4941742;29;20047;-82
2023/03/31 01:50:21;;;;;;;1999.90;590.25;;;11.30;99.90;;;;;;4938853;29;20384;-81
2023/03/31 01:53:11;;;;;;;1999.90;999.90;;;11.40;99.90;;;;;;4945561;29;20098;-81
2023/03/31 01:55:59;;;;;;;1961.03;791.67;;;11.40;99.90;;;;;;4936153;29;20048;-84
2023/03/31 01:58:52;;;;;;;1999.90;999.90;;;11.40;99.90;;;;;;4947194;29;20138;-81
2023/03/31 02:01:22;;;;;;;1688.50;366.10;;;11.40;99.90;;;;;;4936815;28;20115;-81
2023/03/31 02:03:55;;;;;;;1729.75;580.08;;;11.50;99.90;;;;;;4924589;29;20063;-81
2023/03/31 02:06:26;;;;;;;1999.90;699.80;;;11.40;99.90;;;;;;4933954;29;20122;-81
2023/03/31 02:09:01;;;;;;;1999.90;999.90;;;11.50;99.90;;;;;;4927933;29;20056;-81
2023/03/31 02:11:29;;;;;;;1822.88;181.73;;;11.40;99.90;;;;;;4925871;29;20055;-82
2023/03/31 02:14:00;;;;;;;1867.93;578.25;;;11.40;99.90;;;;;;4937014;29;20078;-82
2023/03/31 02:16:31;;;;;;;1541.85;363.73;;;11.40;99.90;;;;;;4935647;29;20075;-82
2023/03/31 02:19:04;;;;;;;1999.90;418.73;;;11.40;99.90;;;;;;4931473;29;20562;-81
2023/03/31 02:21:33;;;;;;;1999.90;999.90;;;11.30;99.90;;;;;;4934011;29;20501;-81
2023/03/31 02:24:03;;;;;;;1999.90;999.90;;;11.40;99.90;;;;;;4929501;29;20527;-81
2023/03/31 02:26:34;;;;;;;1932.03;603.53;;;11.40;99.90;;;;;;4929824;29;20494;-82
2023/03/31 02:29:00;;;;;;;1988.15;456.30;;;11.40;99.90;;;;;;4947228;29;20047;-81
2023/03/31 02:31:53;;;;;;;1875.88;238.52;;;11.40;99.90;;;;;;4940470;29;20047;-81
2023/03/31 02:34:19;;;;;;;1893.88;204.60;;;11.50;99.90;;;;;;4937222;29;20044;-81
2023/03/31 02:36:45;;;;;;;1956.05;209.18;;;11.50;99.90;;;;;;4938059;29;20106;-82
2023/03/31 02:39:15;;;;;;;1963.22;813.15;;;11.50;99.90;;;;;;4951927;28;20122;-82
2023/03/31 02:41:41;;;;;;;1999.90;999.90;;;11.50;99.90;;;;;;4954484;29;20055;-83
2023/03/31 02:44:08;;;;;;;1867.78;225.90;;;11.50;99.90;;;;;;4942561;28;20048;-82
2023/03/31 02:46:35;;;;;;;1840.27;709.27;;;11.50;99.90;;;;;;4926924;28;20044;-81
2023/03/31 02:49:03;;;;;;;1967.95;795.35;;;11.50;99.90;;;;;;4927111;29;20053;-81
2023/03/31 02:51:47;;;;;;;1932.72;608.55;;;11.50;99.90;;;;;;4954770;29;20046;-82
2023/03/31 02:54:31;;;;;;;1999.90;999.90;;;11.50;99.90;;;;;;4952530;29;20057;-83
2023/03/31 02:57:24;;;;;;;1999.90;681.03;;;11.50;99.90;;;;;;4916328;29;20048;-81
2023/03/31 03:00:23;;;;;;;1999.90;625.70;;;11.50;99.90;;;;;;4916570;29;20098;-82
2023/03/31 03:03:14;;;;;;;1999.90;999.90;;;11.50;99.90;;;;;;4943212;29;20412;-81
2023/03/31 03:06:04;;;;;;;1999.90;999.90;;;11.50;1.00;;;;;;4935327;29;20079;-84
2023/03/31 03:09:00;;;;;;;1999.90;293.25;;;11.50;1.00;;;;;;4935727;29;20091;-82
2023/03/31 03:11:47;;;;;;;1999.90;398.98;;;11.50;1.00;;;;;;4915568;29;20110;-82
2023/03/31 03:14:33;;;;;;;1999.90;999.90;;;11.50;1.00;;;;;;4947044;29;20546;-82
2023/03/31 03:17:16;;;;;;;1999.90;999.90;;;11.60;1.00;;;;;;4950635;28;20094;-81
2023/03/31 03:19:42;;;;;;;1999.90;999.90;;;11.60;1.00;;;;;;4936121;29;20118;-82
2023/03/31 03:22:08;;;;;;;1999.90;813.60;;;11.60;1.00;;;;;;4938139;29;20492;-81
2023/03/31 03:24:34;;;;;;;1999.90;502.42;;;11.60;1.00;;;;;;4927602;29;20047;-81
2023/03/31 03:27:00;;;;;;;1980.72;635.22;;;11.60;1.00;;;;;;4953850;29;20066;-81
2023/03/31 03:29:26;;;;;;;1999.90;304.17;;;11.60;1.00;;;;;;4954959;28;20047;-84
2023/03/31 03:31:52;;;;;;;1999.90;356.92;;;11.70;1.00;;;;;;4935042;29;20499;-82
2023/03/31 03:34:19;;;;;;;1999.90;831.50;;;11.70;1.00;;;;;;4935544;29;20059;-82
2023/03/31 03:36:45;;;;;;;1999.90;251.60;;;11.70;1.00;;;;;;4950366;29;20047;-82
2023/03/31 03:39:11;;;;;;;1999.90;367.35;;;11.80;1.00;;;;;;4950459;28;20047;-81
2023/03/31 03:41:37;;;;;;;1999.90;999.90;;;11.80;1.00;;;;;;4950351;28;20481;-81
2023/03/31 03:44:03;;;;;;;1999.90;999.90;;;12.00;34.10;;;;;;4954873;28;20047;-81
2023/03/31 03:46:29;;;;;;;1999.90;671.92;;;11.80;20.30;;;;;;4949448;28;20062;-81
2023/03/31 03:48:54;;;;;;;1999.90;466.63;;;11.80;85.30;;;;;;4950510;29;20050;-81
2023/03/31 03:51:21;;;;;;;1999.90;999.90;;;11.80;96.10;;;;;;4942775;28;20134;-81
2023/03/31 03:53:46;;;;;;;1999.90;748.92;;;11.80;81.50;;;;;;4950727;29;20118;-81
2023/03/31 03:56:12;;;;;;;1999.90;999.90;;;11.90;67.90;;;;;;4942790;29;20043;-81
2023/03/31 03:58:38;;;;;;;1999.90;752.30;;;11.90;98.00;;;;;;4953746;29;20051;-81
2023/03/31 04:01:03;;;;;;;1999.90;848.72;;;14.30;99.90;;;;;;4950727;29;20051;-81
2023/03/31 04:03:30;;;;;;;1999.90;651.33;;;11.90;99.90;;;;;;4949929;29;20043;-81
2023/03/31 04:05:55;;;;;;;1999.90;704.85;;;11.90;99.90;;;;;;4944512;29;20059;-84
2023/03/31 04:08:21;;;;;;;1999.90;714.17;;;11.90;1.00;;;;;;4928210;29;20640;-85
2023/03/31 04:10:48;;;;;;;1999.90;699.47;;;12.00;99.90;;;;;;4928003;29;20127;-84
2023/03/31 04:13:15;;;;;;;1999.90;651.22;;;11.90;99.90;;;;;;4926633;29;20043;-86
2023/03/31 04:15:41;;;;;;;1999.90;174.82;;;12.10;99.90;;;;;;4927149;29;20115;-85
2023/03/31 04:18:09;;;;;;;1999.90;999.90;;;12.00;99.90;;;;;;4946813;29;20127;-85
2023/03/31 04:20:36;;;;;;;1999.90;999.90;;;12.40;99.90;;;;;;4947793;28;20076;-85
2023/03/31 04:23:08;;;;;;;1999.90;999.90;;;11.80;99.90;;;;;;4925674;29;20048;-85
2023/03/31 04:25:37;;;;;;;1999.90;798.97;;;11.90;99.90;;;;;;4933292;29;20416;-82
2023/03/31 04:28:05;;;;;;;1999.90;999.90;;;12.60;99.90;;;;;;4926974;29;20051;-85
2023/03/31 04:30:32;;;;;;;1999.90;999.90;;;12.10;99.90;;;;;;4926955;29;20052;-84
2023/03/31 04:33:01;;;;;;;1567.88;326.00;;;12.60;99.90;;;;;;4922735;29;20059;-84
2023/03/31 04:35:48;;;;;;;1999.90;999.90;;;12.00;99.90;;;;;;4919636;29;20050;-84
2023/03/31 04:38:17;;;;;;;1877.10;552.45;;;9.10;99.90;;;;;;4925020;29;20051;-84
2023/03/31 04:40:50;;;;;;;1999.90;999.90;;;12.20;99.90;;;;;;4933997;29;20044;-85
2023/03/31 04:43:18;;;;;;;1999.90;999.90;;;11.90;99.90;;;;;;4930383;29;20051;-84
2023/03/31 04:45:44;;;;;;;1999.90;999.90;;;12.20;99.90;;;;;;4933535;29;20048;-85
2023/03/31 04:48:10;;;;;;;1999.90;999.90;;;12.70;99.90;;;;;;4947524;29;20130;-85
2023/03/31 04:50:37;;;;;;;1124.10;81.00;;;12.00;99.90;;;;;;4931679;29;20048;-86
2023/03/31 04:53:03;;;;;;;1999.90;999.90;;;12.00;99.90;;;;;;4930159;29;20045;-85
2023/03/31 04:55:29;;;;;;;1999.90;999.90;;;12.10;99.90;;;;;;4933928;29;20134;-86
2023/03/31 04:57:55;;;;;;;1999.90;999.90;;;12.20;99.90;;;;;;4935834;29;20047;-86
2023/03/31 05:00:21;;;;;;;1999.90;999.90;;;12.00;99.90;;;;;;4931211;28;20048;-86
2023/03/31 05:02:46;;;;;;;1999.90;999.90;;;12.20;99.90;;;;;;4928684;29;20039;-85
2023/03/31 05:05:12;;;;;;;1999.90;999.90;;;11.90;99.90;;;;;;4937196;29;20051;-87
2023/03/31 05:07:38;;;;;;;1728.82;771.65;;;12.00;99.90;;;;;;4915535;29;20134;-86
2023/03/31 05:10:05;;;;;;;1999.90;999.90;;;12.20;99.90;;;;;;4925164;29;20091;-87
2023/03/31 05:12:37;;;;;;;1999.90;999.90;;;12.60;99.90;;;;;;4933517;29;20055;-86
2023/03/31 05:15:05;;;;;;;1999.90;773.63;;;12.00;99.90;;;;;;4935718;28;20079;-86
2023/03/31 05:17:32;;;;;;;1999.90;999.90;;;11.80;99.90;;;;;;4927413;29;20048;-87
2023/03/31 05:19:58;;;;;;;1349.32;532.20;;;12.70;99.90;;;;;;4925014;29;20079;-87
2023/03/31 05:22:25;;;;;;;1380.13;531.88;;;12.10;99.90;;;;;;4919998;29;20054;-86
2023/03/31 05:24:50;;;;;;;1999.90;999.90;;;13.00;99.90;;;;;;4930576;29;20055;-86
2023/03/31 05:27:16;;;;;;;1999.90;999.90;;;12.40;99.90;;;;;;4918745;29;20033;-87
2023/03/31 05:29:42;;;;;;;1815.53;554.78;;;12.50;99.90;;;;;;4942309;29;20047;-87
2023/03/31 05:32:08;;;;;;;1999.90;999.90;;;11.90;99.90;;;;;;4942603;28;20126;-86
2023/03/31 05:34:35;;;;;;;1999.90;999.90;;;12.00;99.90;;;;;;4944519;29;20175;-86
2023/03/31 05:37:01;;;;;;;1290.32;517.53;;;12.40;99.90;;;;;;4924642;28;20044;-86
2023/03/31 05:39:31;;;;;;;1685.03;769.63;;;12.80;99.90;;;;;;4942506;29;20094;-86
2023/03/31 05:41:58;;;;;;;1999.90;999.90;;;12.80;99.90;;;;;;4956460;28;20055;-86
2023/03/31 05:44:23;;;;;;;1999.90;999.90;;;12.00;99.90;;;;;;4942550;28;20059;-86
2023/03/31 05:46:49;;;;;;;1999.90;999.90;;;12.30;99.90;;;;;;4918680;29;20044;-86
2023/03/31 05:49:15;;;;;;;1999.90;999.90;;;11.90;99.90;;;;;;4940068;29;20130;-86
2023/03/31 05:51:41;;;;;;;1327.07;533.35;;;11.90;99.90;;;;;;4953859;28;20460;-86
2023/03/31 05:54:07;;;;;;;1999.90;999.90;;;11.60;99.90;;;;;;4957164;28;20055;-86
2023/03/31 05:56:33;;;;;;;1999.90;999.90;;;12.40;99.90;;;;;;4926132;29;20048;-86
2023/03/31 05:59:00;;;;;;;1999.90;999.90;;;12.80;99.90;;;;;;4929877;29;20044;-86
2023/03/31 06:01:26;;;;;;;1874.07;181.45;;;12.00;99.90;;;;;;4921983;29;20153;-86
2023/03/31 06:03:52;;;;;;;1999.90;999.90;;;12.50;99.90;;;;;;4948505;28;20058;-86
2023/03/31 06:06:18;;;;;;;1999.90;999.90;;;12.10;99.90;;;;;;4918763;29;20448;-85
2023/03/31 06:08:45;;;;;;;1999.90;999.90;;;12.10;99.90;;;;;;4935585;29;20047;-84
2023/03/31 06:11:15;;;;;;;1999.90;999.90;;;12.00;99.90;;;;;;4924919;29;20043;-89
2023/03/31 06:13:41;;;;;;;1999.90;999.90;;;10.90;99.90;;;;;;4931012;29;20058;-86
2023/03/31 06:16:09;;;;;;;1999.90;999.90;;;12.00;99.90;;;;;;4933502;29;20114;-89
2023/03/31 06:18:35;;;;;;;1999.90;999.90;;;12.80;99.90;;;;;;4944701;29;20408;-84
2023/03/31 06:21:01;;;;;;;1999.90;999.90;;;12.70;99.90;;;;;;4944303;28;20056;-84
2023/03/31 06:23:27;;;;;;;1358.57;531.22;;;12.60;99.90;;;;;;4936025;29;20208;-84
2023/03/31 06:25:53;;;;;;;1999.90;999.90;;;12.50;99.90;;;;;;4936178;29;20059;-84
2023/03/31 06:28:20;;;;;;;1333.55;527.90;;;12.80;99.90;;;;;;4942426;29;20043;-85
2023/03/31 06:30:46;;;;;;;1720.40;760.85;;;12.80;99.90;;;;;;4955194;28;20050;-84
2023/03/31 06:33:12;;;;;;;1999.90;999.90;;;12.00;99.90;;;;;;4946329;29;20370;-84
2023/03/31 06:35:39;;;;;;;1999.90;999.90;;;12.10;99.90;;;;;;4934485;29;20485;-85
2023/03/31 06:38:06;;;;;;;1999.90;999.90;;;12.50;99.90;;;;;;4938868;29;20043;-89
2023/03/31 06:40:31;;;;;;;436.98;40.88;;;12.30;99.90;;;;;;4919979;29;20039;-84
2023/03/31 06:42:57;;;;;;;1282.43;314.23;;;12.40;99.90;;;;;;4932169;29;20103;-84
2023/03/31 06:45:23;;;;;;;1276.03;533.15;;;12.80;99.90;;;;;;4929867;29;20048;-84
2023/03/31 06:47:48;;;;;;;1715.95;772.22;;;12.40;99.90;;;;;;4934454;29;20394;-84
2023/03/31 06:50:15;;;;;;;1999.90;999.90;;;;;;;;;;4934402;28;20055;-84
2023/03/31 06:52:41;;;;;;;1261.07;520.22;;;12.70;99.90;;;;;;4934189;29;20382;-83
2023/03/31 06:55:08;;;;;;;1999.90;999.90;;;12.60;99.90;;;;;;4929223;29;20057;-84
2023/03/31 06:57:34;;;;;;;1999.90;999.90;;;12.20;99.90;;;;;;4933779;29;20040;-84
2023/03/31 07:00:00;;;;;;;1999.90;999.90;;;12.20;99.90;;;;;;4930039;29;20366;-84
2023/03/31 07:02:25;;;;;;;1999.90;999.90;;;12.20;99.90;;;;;;4935073;29;20047;-83
2023/03/31 07:04:51;;;;;;;1999.90;999.90;;;12.90;99.90;;;;;;4917123;29;20107;-83
2023/03/31 07:07:17;;;;;;;1636.57;764.72;;;12.40;99.90;;;;;;4930652;29;20043;-83
2023/03/31 07:09:42;;;;;;;1999.90;999.90;;;12.10;99.90;;;;;;4937459;29;20056;-83
2023/03/31 07:12:09;;;;;;;1999.90;999.90;;;12.90;99.90;;;;;;4931927;29;20492;-83
2023/03/31 07:14:35;;;;;;;1999.90;999.90;;;12.20;99.90;;;;;;4928929;29;20082;-83
2023/03/31 07:17:02;;;;;;;1999.90;999.90;;;12.60;99.90;;;;;;4928461;29;20131;-83
2023/03/31 07:19:27;;;;;;;1642.35;765.55;;;12.30;99.90;;;;;;4931276;29;20071;-83
2023/03/31 07:21:55;;;;;;;1999.90;999.90;;;12.30;99.90;;;;;;4936059;29;20051;-84
2023/03/31 07:24:21;;;;;;;1999.90;999.90;;;12.90;99.90;;;;;;4933552;29;20051;-87
2023/03/31 07:26:47;;;;;;;1999.90;999.90;;;12.20;99.90;;;;;;4925162;29;20044;-84
2023/03/31 07:29:12;;;;;;;1999.90;999.90;;;12.50;99.90;;;;;;4925769;29;20051;-83
2023/03/31 07:31:38;;;;;;;1999.90;999.90;;;12.50;99.90;;;;;;4936637;28;20052;-87
2023/03/31 07:34:04;;;;;;;1999.90;999.90;;;13.10;99.90;;;;;;4952015;29;20413;-83
2023/03/31 07:36:30;;;;;;;1999.90;999.90;;;12.30;99.90;;;;;;4931446;28;20044;-84
2023/03/31 07:38:56;;;;;;;1999.90;999.90;;;12.60;99.90;;;;;;4925345;29;20047;-84
2023/03/31 07:41:22;;;;;;;1999.90;999.90;;;12.10;99.90;;;;;;4933875;29;20102;-84
2023/03/31 07:43:49;;;;;;;1254.10;524.83;;;12.20;99.90;;;;;;4935021;29;20473;-84
2023/03/31 07:46:17;;;;;;;1621.32;763.10;;;12.60;99.90;;;;;;4937243;29;20440;-83
2023/03/31 07:48:45;;;;;;;1623.35;760.30;;;11.60;99.90;;;;;;4925971;29;20155;-83
2023/03/31 07:51:15;;;;;;;1022.95;118.25;;;12.20;99.90;;;;;;4938452;29;20062;-83
2023/03/31 07:53:41;;;;;;;1651.10;765.88;;;12.50;99.90;;;;;;4935189;29;20488;-85
2023/03/31 07:56:07;;;;;;;1999.90;999.90;;;12.20;99.90;;;;;;4931804;28;20063;-83
2023/03/31 07:58:33;;;;;;;1668.13;541.13;;;11.90;99.90;;;;;;4923959;29;20044;-83
2023/03/31 08:00:59;;;;;;;1999.90;999.90;;;13.10;99.90;;;;;;4932593;29;20043;-83
2023/03/31 08:03:26;;;;;;;1999.90;999.90;;;;;;;;;;4930419;29;20054;-91
2023/03/31 08:05:52;;;;;;;1225.45;522.03;;;12.50;99.90;;;;;;4918988;29;20081;-83
2023/03/31 08:08:18;;;;;;;1999.90;999.90;;;13.10;99.90;;;;;;4930289;29;20110;-83
2023/03/31 08:10:44;;;;;;;1999.90;999.90;;;12.40;99.90;;;;;;4922836;29;20056;-85
2023/03/31 08:13:10;;;;;;;1123.57;513.05;;;12.60;99.90;;;;;;4927318;29;20532;-83
2023/03/31 08:15:35;;;;;;;1999.90;999.90;;;13.30;99.90;;;;;;4929075;29;20044;-83
2023/03/31 08:18:03;;;;;;;1999.90;999.90;;;12.50;99.90;;;;;;4920479;29;20099;-84
2023/03/31 08:20:28;;;;;;;1999.90;999.90;;;12.10;99.90;;;;;;4934967;29;20047;-84
2023/03/31 08:22:54;;;;;;;1999.90;780.35;;;13.30;99.90;;;;;;4933876;29;20485;-83
2023/03/31 08:25:20;;;;;;;1999.90;999.90;;;;;;;;;;4933624;29;20055;-83
2023/03/31 08:27:49;;;;;;;1999.90;999.90;;;12.90;99.90;;;;;;4932340;29;20465;-83
2023/03/31 08:30:17;;;;;;;1999.90;999.90;;;12.60;99.90;;;;;;4954253;28;20070;-83
2023/03/31 08:32:44;;;;;;;1999.90;999.90;;;13.40;99.90;;;;;;4953815;28;20555;-83
2023/03/31 08:35:10;;;;;;;1999.90;999.90;;;12.60;99.90;;;;;;4932002;28;20050;-83
2023/03/31 08:37:37;;;;;;;1999.90;999.90;;;13.30;99.90;;;;;;4952558;28;20040;-83
2023/03/31 08:40:08;;;;;;;1999.90;999.90;;;13.30;99.90;;;;;;4951809;28;20043;-85
2023/03/31 08:42:52;;;;;;;1999.90;999.90;;;12.80;99.90;;;;;;4949574;29;20115;-83
2023/03/31 08:45:31;;;;;;;1999.90;999.90;;;12.70;99.90;;;;;;4931229;28;20055;-84
2023/03/31 08:48:03;;;;;;;1999.90;999.90;;;13.10;99.90;;;;;;4917232;29;20115;-83
2023/03/31 08:50:34;;;;;;;1999.90;999.90;;;13.00;99.90;;;;;;4932994;29;20048;-83
2023/03/31 08:53:34;;;;;;;1999.90;999.90;;;12.60;99.90;;;;;;4920803;29;20052;-83
2023/03/31 08:56:00;;;;;;;1108.43;87.40;;;12.60;99.90;;;;;;4933293;29;20048;-83
2023/03/31 08:58:42;;;;;;;1999.90;999.90;;;13.20;99.90;;;;;;4945792;28;20051;-83
2023/03/31 09:01:30;;;;;;;1650.00;762.25;;;12.70;99.90;;;;;;4949352;29;20058;-83
2023/03/31 09:04:11;;;;;;;1406.55;519.30;;;13.50;99.90;;;;;;4951753;28;20051;-84
2023/03/31 09:06:38;;;;;;;1346.13;530.60;;;13.20;99.90;;;;;;4929560;29;20048;-83
2023/03/31 09:09:09;;;;;;;1999.90;999.90;;;12.70;99.90;;;;;;4930445;29;20068;-83
2023/03/31 09:11:53;;;;;;;1999.90;999.90;;;12.60;99.90;;;;;;4940941;29;20047;-84
2023/03/31 09:14:41;;;;;;;1999.90;999.90;;;13.00;99.90;;;;;;4926372;29;20043;-83
2023/03/31 09:17:30;;;;;;;1999.90;999.90;;;12.70;99.90;;;;;;4934202;29;20087;-83
2023/03/31 09:20:21;;;;;;;1666.03;761.72;;;12.80;99.90;;;;;;4924219;29;20579;-85
2023/03/31 09:22:54;;;;;;;1999.90;999.90;;;13.70;99.90;;;;;;4946978;29;20051;-83
2023/03/31 09:25:25;;;;;;;1999.90;999.90;;;13.60;99.90;;;;;;4935811;28;20067;-83
2023/03/31 09:27:57;;;;;;;1999.90;999.90;;;13.20;99.90;;;;;;4935746;29;20039;-83
2023/03/31 09:30:29;;;;;;;1999.90;999.90;;;12.80;99.90;;;;;;4930628;29;20111;-84
2023/03/31 09:33:17;;;;;;;919.78;50.00;;;12.90;99.90;;;;;;4951606;29;20476;-84
2023/03/31 09:35:43;;;;;;;1806.45;759.72;;;12.90;99.90;;;;;;4946999;28;20040;-83
2023/03/31 09:38:13;;;;;;;1999.90;999.90;;;13.70;99.90;;;;;;4936973;29;20047;-83
2023/03/31 09:40:39;;;;;;;1999.90;999.90;;;12.90;99.90;;;;;;4931420;29;20044;-86
2023/03/31 09:43:23;;;;;;;1999.90;999.90;;;13.00;99.90;;;;;;4929104;29;20437;-84
2023/03/31 09:45:49;;;;;;;1834.75;766.30;;;13.30;99.90;;;;;;4936353;29;20040;-84
2023/03/31 09:48:19;;;;;;;1833.57;567.53;;;14.00;99.90;;;;;;4935004;29;20056;-85
2023/03/31 09:50:58;;;;;;;1999.90;999.90;;;13.10;99.90;;;;;;4932747;29;20564;-84
2023/03/31 09:53:39;;;;;;;1999.90;999.90;;;13.90;99.90;;;;;;4937744;29;20047;-84
2023/03/31 09:56:08;;;;;;;1724.57;756.85;;;14.10;99.90;;;;;;4919410;29;20051;-86
2023/03/31 09:58:47;;;;;;;1999.90;999.90;;;13.50;99.90;;;;;;4936674;29;20052;-84
2023/03/31 10:01:14;;;;;;;1999.90;999.90;;;13.70;99.90;;;;;;4931792;29;20091;-87
2023/03/31 10:03:52;;;;;;;1999.90;999.90;;;13.00;99.90;;;;;;4925284;29;20048;-84
2023/03/31 10:06:19;;;;;;;1999.90;999.90;;;14.00;99.90;;;;;;4930053;29;20066;-84
2023/03/31 10:08:50;;;;;;;1999.90;999.90;;;13.30;99.90;;;;;;4931849;29;20087;-84
2023/03/31 10:11:16;;;;;;;1810.55;353.60;;;14.30;99.90;;;;;;4930952;29;20067;-84
2023/03/31 10:13:57;;;;;;;1999.90;999.90;;;13.30;99.90;;;;;;4926396;29;20131;-89
2023/03/31 10:16:30;;;;;;;1999.90;999.90;;;14.00;99.90;;;;;;4930835;29;20491;-84
2023/03/31 10:19:12;;;;;;;1830.07;759.83;;;13.70;99.90;;;;;;4945867;28;20488;-84
2023/03/31 10:21:38;;;;;;;1999.90;999.90;;;13.40;99.90;;;;;;4955272;29;20062;-85
2023/03/31 10:24:09;;;;;;;1999.90;999.90;;;13.20;99.90;;;;;;4954824;29;20062;-85
2023/03/31 10:26:35;;;;;;;1999.90;999.90;;;13.40;99.90;;;;;;4945660;28;20048;-84
2023/03/31 10:29:01;;;;;;;1999.90;999.90;;;13.80;99.90;;;;;;4943289;28;20125;-84
2023/03/31 10:31:36;;;;;;;1999.90;999.90;;;14.20;99.90;;;;;;4956296;28;20058;-85
2023/03/31 10:34:15;;;;;;;1999.90;999.90;;;14.30;99.90;;;;;;4930028;29;20548;-84
2023/03/31 10:36:46;;;;;;;1999.90;999.90;;;13.50;99.90;;;;;;4925874;29;20078;-84
2023/03/31 10:39:16;;;;;;;1999.90;999.90;;;13.60;99.90;;;;;;4956113;28;20091;-85
2023/03/31 10:41:42;;;;;;;1999.90;999.90;;;13.80;99.90;;;;;;4955160;28;20054;-85
2023/03/31 10:44:35;;;;;;;1730.03;762.10;;;13.80;99.90;;;;;;4955886;28;20051;-84
2023/03/31 10:47:12;;;;;;;1999.90;999.90;;;14.40;99.90;;;;;;4951122;28;20567;-84
2023/03/31 10:49:40;;;;;;;1999.90;999.90;;;15.60;99.90;;;;;;4929427;29;20063;-84
2023/03/31 10:52:21;;;;;;;1999.90;999.90;;;14.70;99.90;;;;;;4939702;29;20467;-87
2023/03/31 10:54:53;;;;;;;1735.13;569.65;;;14.90;99.90;;;;;;4933976;29;20075;-85
2023/03/31 10:57:34;;;;;;;1999.90;999.90;;;15.80;99.90;;;;;;4934876;29;20043;-84
2023/03/31 11:00:17;;;;;;;1999.90;999.90;;;15.10;99.90;;;;;;4923167;29;20052;-85
2023/03/31 11:02:48;;;;;;;1999.90;999.90;;;15.20;99.90;;;;;;4935465;29;20056;-84
2023/03/31 11:05:38;;;;;;;1999.90;999.90;;;14.50;99.90;;;;;;4932319;29;20087;-86
2023/03/31 11:08:06;;;;;;;1999.90;999.90;;;15.30;99.90;;;;;;4923557;29;20055;-85
2023/03/31 11:10:57;;;;;;;1999.90;999.90;;;14.20;99.90;;;;;;4939207;29;20071;-85
2023/03/31 11:13:49;;;;;;;1999.90;999.90;;;15.20;99.90;;;;;;4934438;29;20138;-85
2023/03/31 11:16:37;;;;;;;1999.90;999.90;;;15.10;99.90;;;;;;4930268;29;20127;-85
2023/03/31 11:19:20;;;;;;;1999.90;999.90;;;14.90;99.90;;;;;;4931516;29;20058;-85
2023/03/31 11:21:55;;;;;;;1999.90;999.90;;;15.10;99.90;;;;;;4924446;29;20048;-84
2023/03/31 11:24:37;;;;;;;1999.90;999.90;;;14.60;99.90;;;;;;4934871;29;20056;-84
2023/03/31 11:27:15;;;;;;;1999.90;999.90;;;14.80;99.90;;;;;;4915803;29;20516;-84
2023/03/31 11:29:56;;;;;;;1999.90;999.90;;;14.30;99.90;;;;;;4929716;29;20168;-84
2023/03/31 11:32:46;;;;;;;1999.90;999.90;;;14.20;99.90;;;;;;4931836;29;20504;-85
2023/03/31 11:35:24;;;;;;;1999.90;999.90;;;14.10;99.90;;;;;;4929984;29;20056;-84
2023/03/31 11:37:51;;;;;;;1999.90;999.90;;;14.90;99.90;;;;;;4927978;29;20044;-83
2023/03/31 11:40:35;;;;;;;1999.90;999.90;;;15.30;99.90;;;;;;4947405;28;20082;-84
2023/03/31 11:43:16;;;;;;;1999.90;999.90;;;14.70;99.90;;;;;;4932126;29;20448;-83
2023/03/31 11:46:06;;;;;;;1999.90;999.90;;;15.70;99.90;;;;;;4937102;28;20043;-84
2023/03/31 11:48:56;;;;;;;1999.90;999.90;;;15.20;99.90;;;;;;4929497;28;20052;-83
2023/03/31 11:51:36;;;;;;;1999.90;999.90;;;14.60;99.90;;;;;;4924907;29;20404;-83
2023/03/31 11:54:05;;;;;;;1999.90;999.90;;;14.60;99.90;;;;;;4928437;29;20050;-83
2023/03/31 11:56:37;;;;;;;1999.90;999.90;;;14.40;99.90;;;;;;4931443;29;20052;-83
2023/03/31 11:59:03;;;;;;;1999.90;999.90;;;14.30;99.90;;;;;;4926449;29;20092;-83
2023/03/31 12:01:36;;;;;;;1999.90;999.90;;;15.20;99.90;;;;;;4921414;29;20074;-83
2023/03/31 12:04:25;;;;;;;1999.90;999.90;;;15.20;99.90;;;;;;4925749;29;20052;-84
2023/03/31 12:06:53;;;;;;;1999.90;999.90;;;14.70;99.90;;;;;;4934376;29;20051;-82
2023/03/31 12:09:47;;;;;;;1999.90;999.90;;;15.40;99.90;;;;;;4930921;29;20048;-84
2023/03/31 12:12:19;;;;;;;1999.90;999.90;;;15.50;99.90;;;;;;4932059;29;20097;-83
2023/03/31 12:14:54;;;;;;;1999.90;999.90;;;15.30;99.90;;;;;;4928538;29;20040;-82
2023/03/31 12:17:26;;;;;;;1999.90;999.90;;;14.70;99.90;;;;;;4935605;29;20125;-82
2023/03/31 12:19:57;;;;;;;1999.90;999.90;;;14.30;99.90;;;;;;4934818;29;20098;-82
2023/03/31 12:22:37;;;;;;;1999.90;999.90;;;15.20;99.90;;;;;;4953198;29;20086;-83